Time;durP1;ratioP1;P1;durP2;ratioP2;P2;SDS_P1;SDS_P2;PMS_P1;PMS_P2;Temp;Humidity;BMP_temperature;BMP_pressure;BME280_temperature;BME280_humidity;BME280_pressure;Samples;Min_cycle;Max_cycle;Signal;HPM_P1;HPM_P2
2024/01/11 00:02:22;;;;;;;76.05;30.38;;;;;;;;;;5090286;28;20043;-72
2024/01/11 00:06:17;;;;;;;80.07;28.52;;;;;;;;;;5091876;28;20055;-72
2024/01/11 01:02:30;;;;;;;57.33;21.00;;;;;;;;;;5109257;28;20085;-72
2024/01/11 01:38:56;;;;;;;50.08;20.10;;;;;;;;;;5084651;28;20063;-71
2024/01/11 01:55:12;;;;;;;58.55;22.17;;;;;;;;;;5112747;28;20573;-72
2024/01/11 02:03:14;;;;;;;62.42;23.70;;;;;;;;;;5112704;28;20045;-72
2024/01/11 02:15:19;;;;;;;59.25;22.08;;;;;;;;;;5113192;28;20082;-71
2024/01/11 07:50:03;;;;;;;40.80;11.48;;;;;;;;;;5094063;28;20428;-67
2024/01/11 07:57:53;;;;;;;41.67;12.45;;;;;;;;;;5108554;28;20193;-69
2024/01/11 15:37:25;;;;;;;58.00;16.98;;;;;;;;;;5950050;23;20362;-76
2024/01/11 15:39:54;;;;;;;57.58;17.65;;;;;;;;;;4937744;29;20130;-73
2024/01/11 15:42:23;;;;;;;53.83;18.77;;;;;;;;;;4932979;29;20107;-73
2024/01/11 15:50:30;;;;;;;64.40;19.75;;;;;;;;;;6014877;23;20080;-68
2024/01/11 15:52:57;;;;;;;66.45;18.83;;;;;;;;;;4922576;29;20056;-69
2024/01/11 15:55:24;;;;;;;52.83;15.88;;;;;;;;;;4934076;29;20698;-70
2024/01/11 15:57:53;;;;;;;62.05;16.73;;;;;;;;;;4916150;29;20063;-72
2024/01/11 16:00:20;;;;;;;65.78;19.55;;;;;;;;;;4919470;29;20145;-70
2024/01/11 16:02:46;;;;;;;71.35;18.63;;;;;;;;;;4914046;29;20063;-70
2024/01/11 16:05:13;;;;;;;61.10;18.70;;;;;;;;;;4918534;29;20412;-67
2024/01/11 16:07:39;;;;;;;58.58;18.65;;;;;;;;;;4912883;29;20063;-67
2024/01/11 16:10:06;;;;;;;60.35;19.23;;;;;;;;;;4922498;29;20044;-67
2024/01/11 16:12:33;;;;;;;60.58;17.85;;;;;;;;;;4917620;29;20040;-73
2024/01/11 16:15:00;;;;;;;54.20;17.35;;;;;;;;;;4931006;29;20056;-68
2024/01/11 16:17:27;;;;;;;64.95;17.58;;;;;;;;;;4932030;29;20044;-69
2024/01/11 16:19:57;;;;;;;62.45;18.83;;;;;;;;;;4931354;29;20052;-72
2024/01/11 16:22:24;;;;;;;51.50;18.65;;;;;;;;;;4930883;29;20079;-73
2024/01/11 16:24:51;;;;;;;57.60;18.05;;;;;;;;;;4931664;29;20055;-68
2024/01/11 16:27:18;;;;;;;61.80;19.00;;;;;;;;;;4917741;29;20066;-68
2024/01/11 16:29:45;;;;;;;60.85;18.50;;;;;;;;;;4912450;29;20135;-74
2024/01/11 16:32:15;;;;;;;61.75;19.42;;;;;;;;;;4914305;29;20060;-67
2024/01/11 16:34:42;;;;;;;65.80;18.70;;;;;;;;;;4931310;29;20146;-64
2024/01/11 16:37:09;;;;;;;66.35;20.25;;;;;;;;;;4931638;29;20055;-64
2024/01/11 16:39:38;;;;;;;73.78;22.27;;;;;;;;;;4930573;29;20155;-65
2024/01/11 16:42:06;;;;;;;65.68;19.70;;;;;;;;;;4929865;29;20575;-62
2024/01/11 16:44:35;;;;;;;65.25;19.83;;;;;;;;;;4929960;29;20056;-62
2024/01/11 16:47:03;;;;;;;72.18;19.58;;;;;;;;;;4931198;29;20126;-64
2024/01/11 16:49:30;;;;;;;53.75;18.50;;;;;;;;;;4931141;29;20374;-66
2024/01/11 16:51:59;;;;;;;65.15;18.00;;;;;;;;;;4927426;29;20457;-63
2024/01/11 16:54:26;;;;;;;61.75;19.67;;;;;;;;;;4943643;29;20063;-71
2024/01/11 16:56:52;;;;;;;56.90;17.88;;;;;;;;;;4933779;29;20570;-68
2024/01/11 16:59:19;;;;;;;60.20;18.50;;;;;;;;;;4945038;29;20526;-70
2024/01/11 17:01:45;;;;;;;58.85;19.63;;;;;;;;;;4928148;29;20052;-71
2024/01/11 17:04:13;;;;;;;63.05;19.00;;;;;;;;;;4915672;29;20051;-72
2024/01/11 17:06:40;;;;;;;64.55;19.30;;;;;;;;;;4932450;29;20107;-72
2024/01/11 17:09:06;;;;;;;66.43;18.70;;;;;;;;;;4915801;29;20058;-71
2024/01/11 17:11:39;;;;;;;60.30;19.63;;;;;;;;;;4914354;29;20052;-72
2024/01/11 17:14:06;;;;;;;65.90;20.55;;;;;;;;;;4936920;29;20055;-74
2024/01/11 17:16:32;;;;;;;62.38;20.02;;;;;;;;;;4932401;29;20135;-71
2024/01/11 17:18:59;;;;;;;63.88;19.58;;;;;;;;;;4916065;29;20105;-72
2024/01/11 17:21:28;;;;;;;63.67;20.90;;;;;;;;;;4916649;29;20186;-72
2024/01/11 17:23:54;;;;;;;63.67;18.52;;;;;;;;;;4916603;29;20081;-72
2024/01/11 17:26:21;;;;;;;64.85;20.42;;;;;;;;;;4933368;29;20111;-72
2024/01/11 17:28:47;;;;;;;69.13;21.40;;;;;;;;;;4916139;29;20055;-72
2024/01/11 17:31:14;;;;;;;65.28;20.27;;;;;;;;;;4933178;29;20055;-72
2024/01/11 17:33:40;;;;;;;64.93;20.35;;;;;;;;;;4937313;29;20495;-72
2024/01/11 17:36:11;;;;;;;63.22;19.90;;;;;;;;;;4941951;29;20079;-71
2024/01/11 17:38:37;;;;;;;67.05;20.13;;;;;;;;;;4932781;29;20115;-72
2024/01/11 17:41:04;;;;;;;71.13;21.63;;;;;;;;;;4932427;29;20058;-73
2024/01/11 17:43:30;;;;;;;76.95;21.52;;;;;;;;;;4932366;29;20664;-74
2024/01/11 17:45:57;;;;;;;68.85;22.08;;;;;;;;;;4932405;29;20052;-72
2024/01/11 17:48:23;;;;;;;65.57;19.60;;;;;;;;;;4934596;29;20047;-73
2024/01/11 17:50:50;;;;;;;69.38;20.55;;;;;;;;;;4935560;29;20059;-71
2024/01/11 17:53:16;;;;;;;81.00;21.17;;;;;;;;;;4934109;29;20854;-73
2024/01/11 17:55:44;;;;;;;81.65;21.77;;;;;;;;;;4931216;29;20055;-72
2024/01/11 17:58:10;;;;;;;73.55;22.95;;;;;;;;;;4931140;29;20056;-72
2024/01/11 18:00:37;;;;;;;83.80;25.10;;;;;;;;;;4931166;29;20095;-72
2024/01/11 18:03:04;;;;;;;78.03;21.63;;;;;;;;;;4929887;29;20055;-72
2024/01/11 18:05:30;;;;;;;85.40;27.15;;;;;;;;;;4930964;29;20407;-72
2024/01/11 18:07:57;;;;;;;86.68;27.77;;;;;;;;;;4930608;29;20657;-72
2024/01/11 18:10:24;;;;;;;77.13;22.27;;;;;;;;;;4931427;29;20099;-72
2024/01/11 18:12:50;;;;;;;79.68;24.13;;;;;;;;;;4931071;29;20059;-74
2024/01/11 18:15:16;;;;;;;82.50;24.52;;;;;;;;;;4930885;29;20044;-72
2024/01/11 18:17:43;;;;;;;77.15;23.42;;;;;;;;;;4930900;29;20052;-72
2024/01/11 18:20:10;;;;;;;69.53;24.00;;;;;;;;;;4930888;29;20048;-71
2024/01/11 18:22:37;;;;;;;75.18;22.83;;;;;;;;;;4930552;29;20147;-71
2024/01/11 18:25:03;;;;;;;74.93;21.83;;;;;;;;;;4930776;29;20055;-72
2024/01/11 18:27:30;;;;;;;77.35;24.17;;;;;;;;;;4931450;29;20430;-71
2024/01/11 18:29:57;;;;;;;75.82;22.65;;;;;;;;;;4934332;29;20051;-72
2024/01/11 18:32:23;;;;;;;72.63;22.40;;;;;;;;;;4934337;29;20048;-74
2024/01/11 18:34:50;;;;;;;80.85;25.17;;;;;;;;;;4934213;29;20055;-75
2024/01/11 18:37:18;;;;;;;81.88;24.30;;;;;;;;;;4929227;29;20643;-73
2024/01/11 18:39:46;;;;;;;93.75;23.95;;;;;;;;;;4934198;29;20162;-72
2024/01/11 18:42:12;;;;;;;86.32;23.02;;;;;;;;;;4933923;29;20435;-72
2024/01/11 18:44:39;;;;;;;69.38;21.48;;;;;;;;;;4933977;29;20171;-71
2024/01/11 18:47:06;;;;;;;67.75;20.88;;;;;;;;;;4933489;29;20047;-71
2024/01/11 18:49:32;;;;;;;90.05;23.60;;;;;;;;;;4933870;29;20056;-72
2024/01/11 18:52:00;;;;;;;88.45;24.08;;;;;;;;;;4933619;29;20082;-72
2024/01/11 18:54:26;;;;;;;81.13;21.92;;;;;;;;;;4916907;29;20082;-72
2024/01/11 18:56:52;;;;;;;85.72;25.67;;;;;;;;;;4934139;29;20556;-71
2024/01/11 18:59:19;;;;;;;85.20;24.98;;;;;;;;;;4930881;29;20048;-72
2024/01/11 19:01:46;;;;;;;75.80;23.98;;;;;;;;;;4928716;29;20052;-73
2024/01/11 19:04:13;;;;;;;75.50;22.48;;;;;;;;;;4916901;29;20654;-72
2024/01/11 19:06:40;;;;;;;78.50;22.02;;;;;;;;;;4934783;29;20523;-72
2024/01/11 19:09:07;;;;;;;92.97;25.15;;;;;;;;;;4932921;29;20058;-73
2024/01/11 19:11:34;;;;;;;77.80;23.35;;;;;;;;;;4933301;29;20708;-73
2024/01/11 19:14:00;;;;;;;86.05;23.85;;;;;;;;;;4933845;29;20048;-72
2024/01/11 19:16:26;;;;;;;79.82;22.60;;;;;;;;;;4933637;29;20237;-72
2024/01/11 19:18:53;;;;;;;87.93;25.50;;;;;;;;;;4916553;29;20059;-72
2024/01/11 19:21:20;;;;;;;80.60;22.58;;;;;;;;;;4933357;29;20126;-72
2024/01/11 19:23:47;;;;;;;84.60;24.17;;;;;;;;;;4933334;29;20048;-73
2024/01/11 19:26:13;;;;;;;87.50;26.02;;;;;;;;;;4933409;29;20107;-72
2024/01/11 19:28:39;;;;;;;93.03;26.40;;;;;;;;;;4933266;29;20052;-72
2024/01/11 19:31:06;;;;;;;82.38;23.55;;;;;;;;;;4932940;29;20154;-72
2024/01/11 19:33:34;;;;;;;76.70;24.40;;;;;;;;;;4932889;29;20142;-72
2024/01/11 19:36:00;;;;;;;69.47;22.80;;;;;;;;;;4933135;29;20123;-72
2024/01/11 19:38:27;;;;;;;81.85;22.92;;;;;;;;;;4914639;29;20050;-72
2024/01/11 19:40:53;;;;;;;81.65;24.85;;;;;;;;;;4932687;29;20047;-72
2024/01/11 19:43:20;;;;;;;77.70;23.70;;;;;;;;;;4932997;29;20479;-73
2024/01/11 19:45:46;;;;;;;77.28;22.08;;;;;;;;;;4915784;29;20055;-72
2024/01/11 19:48:14;;;;;;;88.07;23.45;;;;;;;;;;4933009;29;20142;-72
2024/01/11 19:50:41;;;;;;;74.85;25.40;;;;;;;;;;4932521;29;20134;-72
2024/01/11 19:53:08;;;;;;;90.25;26.08;;;;;;;;;;4932690;29;20048;-72
2024/01/11 19:55:35;;;;;;;96.32;26.52;;;;;;;;;;4932657;29;20052;-72
2024/01/11 19:58:02;;;;;;;97.43;28.40;;;;;;;;;;4919920;29;20456;-72
2024/01/11 20:00:28;;;;;;;86.05;28.40;;;;;;;;;;4924231;29;20064;-73
2024/01/11 20:02:55;;;;;;;92.47;27.92;;;;;;;;;;4932462;29;20051;-73
2024/01/11 20:05:21;;;;;;;95.85;30.00;;;;;;;;;;4932332;29;20044;-73
2024/01/11 20:07:48;;;;;;;95.45;27.40;;;;;;;;;;4932364;29;20052;-73
2024/01/11 20:10:14;;;;;;;97.20;27.50;;;;;;;;;;4931162;29;20055;-73
2024/01/11 20:12:41;;;;;;;101.80;26.73;;;;;;;;;;4932227;29;20056;-73
2024/01/11 20:15:08;;;;;;;91.82;27.95;;;;;;;;;;4932093;29;20062;-72
2024/01/11 20:17:35;;;;;;;81.18;27.38;;;;;;;;;;4931134;29;20048;-73
2024/01/11 20:20:03;;;;;;;103.93;26.05;;;;;;;;;;4932454;29;20055;-73
2024/01/11 20:22:30;;;;;;;75.50;23.92;;;;;;;;;;4932141;29;20147;-73
2024/01/11 20:24:56;;;;;;;88.18;24.33;;;;;;;;;;4932179;29;20377;-73
2024/01/11 20:27:22;;;;;;;96.03;28.73;;;;;;;;;;4932234;29;20086;-72
2024/01/11 20:29:49;;;;;;;85.78;26.60;;;;;;;;;;4915512;29;20131;-71
2024/01/11 20:32:16;;;;;;;72.78;24.30;;;;;;;;;;4932001;29;20079;-73
2024/01/11 20:34:42;;;;;;;73.13;23.63;;;;;;;;;;4914868;29;20048;-72
2024/01/11 20:37:09;;;;;;;87.18;22.75;;;;;;;;;;4931904;29;20059;-72
2024/01/11 20:39:37;;;;;;;80.53;24.63;;;;;;;;;;4926141;29;20044;-73
2024/01/11 20:42:04;;;;;;;76.18;23.17;;;;;;;;;;4929919;29;20054;-73
2024/01/11 20:44:30;;;;;;;74.63;23.90;;;;;;;;;;4931868;29;20547;-73
2024/01/11 20:46:57;;;;;;;80.38;23.73;;;;;;;;;;4931586;29;20122;-73
2024/01/11 20:49:23;;;;;;;86.32;25.75;;;;;;;;;;4931925;29;20050;-72
2024/01/11 20:51:52;;;;;;;73.28;23.42;;;;;;;;;;4913964;29;20061;-72
2024/01/11 20:54:19;;;;;;;80.38;24.13;;;;;;;;;;4931586;29;20484;-73
2024/01/11 20:56:45;;;;;;;87.60;25.38;;;;;;;;;;4931727;29;20044;-73
2024/01/11 20:59:11;;;;;;;89.40;27.10;;;;;;;;;;4912614;29;20052;-71
2024/01/11 21:01:38;;;;;;;89.68;26.33;;;;;;;;;;4927185;29;20052;-73
2024/01/11 21:04:05;;;;;;;86.70;25.35;;;;;;;;;;4931454;29;20533;-73
2024/01/11 21:06:31;;;;;;;91.10;26.02;;;;;;;;;;4931573;29;20343;-72
2024/01/11 21:08:59;;;;;;;86.93;27.33;;;;;;;;;;4931134;29;20058;-73
2024/01/11 21:11:25;;;;;;;96.40;28.75;;;;;;;;;;4930794;29;20051;-73
2024/01/11 21:13:52;;;;;;;111.82;29.25;;;;;;;;;;4931474;29;20051;-73
2024/01/11 21:16:18;;;;;;;91.97;26.20;;;;;;;;;;4931716;29;20051;-75
2024/01/11 21:18:49;;;;;;;86.80;24.80;;;;;;;;;;4931071;29;20170;-74
2024/01/11 21:21:17;;;;;;;97.50;28.30;;;;;;;;;;4931766;29;20055;-74
2024/01/11 21:23:44;;;;;;;81.63;25.77;;;;;;;;;;4914478;29;20047;-74
2024/01/11 21:26:13;;;;;;;90.97;27.80;;;;;;;;;;4931571;29;20077;-74
2024/01/11 21:28:39;;;;;;;82.40;25.63;;;;;;;;;;4931348;29;20515;-73
2024/01/11 21:31:06;;;;;;;98.25;24.60;;;;;;;;;;4931019;29;20059;-73
2024/01/11 21:33:32;;;;;;;88.07;27.33;;;;;;;;;;4931309;29;20130;-72
2024/01/11 21:35:59;;;;;;;85.80;27.00;;;;;;;;;;4931192;29;20304;-73
2024/01/11 21:38:25;;;;;;;85.25;24.23;;;;;;;;;;4930956;29;20067;-74
2024/01/11 21:40:52;;;;;;;87.43;25.92;;;;;;;;;;4923407;29;20123;-73
2024/01/11 21:43:18;;;;;;;82.18;25.77;;;;;;;;;;4931299;29;20086;-73
2024/01/11 21:45:45;;;;;;;76.38;25.73;;;;;;;;;;4931185;29;20087;-72
2024/01/11 21:48:11;;;;;;;90.20;26.17;;;;;;;;;;4914051;29;20056;-72
2024/01/11 21:50:38;;;;;;;76.63;23.60;;;;;;;;;;4930762;29;20582;-72
2024/01/11 21:53:05;;;;;;;83.93;25.00;;;;;;;;;;4930868;29;20626;-72
2024/01/11 21:55:32;;;;;;;78.97;23.42;;;;;;;;;;4931324;29;20048;-72
2024/01/11 21:57:59;;;;;;;74.20;21.80;;;;;;;;;;4910870;29;20694;-73
2024/01/11 22:00:25;;;;;;;67.35;21.55;;;;;;;;;;4912468;29;20127;-73
2024/01/11 22:02:51;;;;;;;76.93;23.60;;;;;;;;;;4913591;29;20048;-73
2024/01/11 22:05:18;;;;;;;75.80;25.25;;;;;;;;;;4914842;29;20078;-72
2024/01/11 22:07:44;;;;;;;65.50;21.60;;;;;;;;;;4915586;29;20147;-73
2024/01/11 22:10:11;;;;;;;82.07;24.30;;;;;;;;;;4917361;29;20082;-73
2024/01/11 22:12:37;;;;;;;64.35;22.35;;;;;;;;;;4917056;29;20095;-73
2024/01/11 22:15:04;;;;;;;83.35;25.35;;;;;;;;;;4934346;29;20492;-73
2024/01/11 22:17:34;;;;;;;70.32;22.45;;;;;;;;;;4934400;29;20512;-73
2024/01/11 22:20:00;;;;;;;73.20;24.35;;;;;;;;;;4934543;29;20093;-73
2024/01/11 22:22:27;;;;;;;83.35;26.35;;;;;;;;;;4934316;29;20090;-73
2024/01/11 22:24:53;;;;;;;76.47;24.05;;;;;;;;;;4934269;29;20075;-73
2024/01/11 22:27:21;;;;;;;95.20;27.13;;;;;;;;;;4934057;29;20048;-73
2024/01/11 22:29:47;;;;;;;83.38;24.42;;;;;;;;;;4917008;29;20051;-73
2024/01/11 22:32:14;;;;;;;78.47;26.83;;;;;;;;;;4933992;29;20051;-73
2024/01/11 22:34:40;;;;;;;83.18;26.08;;;;;;;;;;4934285;29;20168;-73
2024/01/11 22:37:07;;;;;;;72.80;24.83;;;;;;;;;;4934189;29;20055;-73
2024/01/11 22:39:33;;;;;;;101.38;27.08;;;;;;;;;;4932795;29;20488;-73
2024/01/11 22:42:00;;;;;;;68.22;24.40;;;;;;;;;;4933252;29;20082;-73
2024/01/11 22:44:30;;;;;;;78.15;27.75;;;;;;;;;;4934334;29;20055;-73
2024/01/11 22:46:56;;;;;;;81.13;26.35;;;;;;;;;;4937022;29;20519;-73
2024/01/11 22:49:23;;;;;;;86.47;27.42;;;;;;;;;;4938218;29;20492;-72
2024/01/11 22:51:49;;;;;;;108.00;28.42;;;;;;;;;;4934447;29;20060;-71
2024/01/11 22:54:16;;;;;;;98.13;25.30;;;;;;;;;;4934645;29;20055;-74
2024/01/11 22:56:42;;;;;;;74.70;27.27;;;;;;;;;;4917111;29;20047;-73
2024/01/11 22:59:12;;;;;;;86.15;27.30;;;;;;;;;;4926722;29;20527;-73
2024/01/11 23:01:40;;;;;;;98.43;29.33;;;;;;;;;;4932091;29;20044;-73
2024/01/11 23:04:06;;;;;;;93.28;26.35;;;;;;;;;;4933874;29;20191;-73
2024/01/11 23:06:35;;;;;;;91.55;25.98;;;;;;;;;;4934127;29;20055;-73
2024/01/11 23:09:02;;;;;;;80.90;25.60;;;;;;;;;;4933612;29;20055;-72
2024/01/11 23:11:28;;;;;;;79.45;26.02;;;;;;;;;;4932607;29;20052;-73
2024/01/11 23:13:54;;;;;;;78.35;23.60;;;;;;;;;;4933302;29;20052;-72
2024/01/11 23:16:21;;;;;;;97.82;24.13;;;;;;;;;;4933710;29;20374;-72
2024/01/11 23:18:47;;;;;;;69.57;24.17;;;;;;;;;;4933633;29;20086;-72
2024/01/11 23:21:14;;;;;;;82.45;25.30;;;;;;;;;;4933501;29;20059;-71
2024/01/11 23:23:40;;;;;;;86.88;24.92;;;;;;;;;;4933503;29;20048;-70
2024/01/11 23:26:07;;;;;;;90.20;25.40;;;;;;;;;;4933428;29;20503;-71
2024/01/11 23:28:33;;;;;;;90.55;26.27;;;;;;;;;;4933162;29;20051;-70
2024/01/11 23:31:00;;;;;;;82.47;23.52;;;;;;;;;;4932842;29;20059;-71
2024/01/11 23:33:27;;;;;;;87.03;26.35;;;;;;;;;;4933358;29;20111;-70
2024/01/11 23:35:56;;;;;;;89.57;28.50;;;;;;;;;;4933590;29;20150;-69
2024/01/11 23:38:22;;;;;;;73.68;25.17;;;;;;;;;;4933164;29;20043;-69
2024/01/11 23:40:49;;;;;;;101.15;27.20;;;;;;;;;;4934064;29;20130;-69
2024/01/11 23:43:16;;;;;;;107.35;32.25;;;;;;;;;;4926608;29;20054;-69
2024/01/11 23:45:42;;;;;;;95.28;28.20;;;;;;;;;;4933609;29;20499;-66
2024/01/11 23:48:09;;;;;;;97.75;29.45;;;;;;;;;;4933370;29;20711;-67
2024/01/11 23:50:35;;;;;;;172.43;39.60;;;;;;;;;;4933371;29;20533;-66
2024/01/11 23:53:02;;;;;;;149.95;41.28;;;;;;;;;;4932999;29;20139;-65
2024/01/11 23:55:28;;;;;;;137.57;40.75;;;;;;;;;;4933090;29;20055;-66
2024/01/11 23:57:55;;;;;;;139.95;41.10;;;;;;;;;;4912723;29;20179;-65
